Argyle, FL

11:32 AM CDT on October 02, 2014 (GMT -0500)
WZEP AM 1460 DeFuniak Springs, FL | Change Station
CLOSE
Current Station
Personal Weather Station
Location: DeFuniak Springs, FL
Elevation: 174 ft
Nearby Weather Stations

Elev 174 ft 30.73 °N, 86.12 °W | Updated 2 seconds ago

Partly Cloudy
Partly Cloudy
84.7 °F
Feels Like 92 °F
N
0.0
Wind Variable Wind from North
Gusts 1.0 mph

Today
High -- | Low -- °F
--% Chance of Precip.
Yesterday
High -- | Low -- °F
Precip. -- in
6:38 AM 6:28 PM
First Quarter, 60% visible
Pressure 30.07 in
Visibility 10.0 miles
Clouds Mostly Cloudy 2700 ft
Mostly Cloudy 3400 ft
Overcast 4200 ft
Heat Index 92 °F
Dew Point 73 °F
Humidity 69%
Rainfall 0.00 in
Snow Depth Not available.
UV 3 out of 12
Pollen 6.80 out of 12
Air Quality Not available.
Flu Activity Not available.
METAR K54J 021615Z AUTO 18003KT 10SM BKN027 BKN034 OVC042 28/21 A3007 RMK AO2 T02810212

More Conditions Fewer Conditions

Pressure 30.07 in
Visibility 10.0 miles
Clouds Mostly Cloudy 2700 ft
Mostly Cloudy 3400 ft
Overcast 4200 ft
Heat Index 92 °F
Dew Point 73 °F
Humidity 69%
Rainfall 0.00 in
Snow Depth Not available.
UV 3 out of 12
Pollen 6.80 out of 12
Air Quality Not available.
Flu Activity Not available.
METAR K54J 021615Z AUTO 18003KT 10SM BKN027 BKN034 OVC042 28/21 A3007 RMK AO2 T02810212

More Conditions Fewer Conditions

10-Day Weather Forecast

Almanac

Astronomy

Oct. 02, 2014 Rise Set
Actual Time 6:38 AM CDT 6:28 PM CDT
Civil Twilight 6:14 AM CDT 6:52 PM CDT
Nautical Twilight 5:46 AM CDT 7:20 PM CDT
Astronomical Twilight 5:18 AM CDT 7:48 PM CDT
Moon 2:13 PM CDT 12:16 AM CDT
Length of Visible Light 12h 37m
Length of Day
11h 49m
Tomorrow will be 1m 50s shorter.
First Quarter, 60% of the Moon is Illuminated
Today
First Quarter
Oct 8
Full
Oct 15
Last Quarter
Oct 23
New
Oct 30
First Quarter

Today's Extremes

State Highs State Lows

Community

WunderPhotos

Upload Photos

1,758,294 photos uploaded!

WunderBlogs® & News

Nearby

Snow Depth

Station Depth Elevation
No new snow has been reported.

Earthquake Activity

City Distance Mag. Time & Date
No recent earthquake activity has been reported nearby.
Minimum magnitude displayed is 2.5.

Coastal Water Temperatures

Place Temperature
No Stations Reporting

Nearby Weather Stations